Aérodrome :
LOGIN :

S'inscrire | Disclaimer

   EN    FR    IT 

 










Légende :    VFR   VFR Marginal   IFR   IFR Intensif   IFR Très Intensif
Visi : 
Plafond : 
>= 8 km
>= 3000ft
5 à 8 km
1000 à 3000 ft
1500m à 5 km
500 à 1000 ft
800 à 1500m
200 à 500 ft
< 800m
< 200 ft
Symboles :   Orages  Brouillard  Fortes neiges  Fortes précipitations  Vent > 20 kt
SIGMETs :   Divers  Orages  Givrage  Turbulence  Onde Orograph.  Cendres Volcan.






- Altitude de l'aérodrome : 425 ft
- Code IATA : DTM


EDLW - Dortmund

DERNIER METAR :
  • 200050Z AUTO 27005KT 230V310 9999 // FEW029/// SCT049/// 04/03 Q1013

METARs EXPIRÉS :
  • 200020Z AUTO 27005KT 240V320 9999 // FEW051/// 04/03 Q1013
  • 192350Z AUTO 27005KT 240V320 9999 // FEW026/// SCT051/// 04/04 Q1013
  • 192320Z AUTO 27005KT 240V320 9999 // FEW015/// SCT021/// 05/04 Q1012
  • 192250Z AUTO 27005KT 230V310 9999 // FEW018/// BKN022/// BKN050/// 05/04 Q1012
  • 192220Z AUTO 28006KT 240V330 9999 // SCT016/// SCT022/// BKN066/// 05/04 Q1012
  • 192150Z AUTO 28006KT 240V320 9999 // FEW012/// BKN016/// OVC063/// 05/04 Q1011
  • 192120Z AUTO 27007KT 240V340 9999 // FEW013/// BKN021/// OVC055/// 06/05 Q1011
  • 192050Z 28006KT 250V310 9999 FEW011 BKN027 OVC039 05/04 Q1010
  • 192020Z 31009KT 240V360 6000 -SHRA FEW007TCU BKN012 OVC022 05/04 Q1010

TAF TAF EDLW
Valide du 19 à 18h jusqu'au 20 à 18h UTC


191700Z 1918/2018 30013KT 9999 BKN020
TEMPO 1918/1920 31015G30KT 4000 SHRAGS BKN014CB
BECMG 1920/1923 30007KT
TEMPO 1920/2010 BKN012
PROB30
TEMPO 2004/2009 BKN008CB
TEMPO 2010/2018 4000 SHRAGS BKN014CB
PROB30
TEMPO 2012/2018 30015G25KT 2500 TSGS



MET'MAP, la Météo Aéronautique d'un coup d'oeil ! - Copyright ORBIFLY Décembre 2007 - Disclaimer

ORBIFLY MET'MAP TEAM :

Programmation & Développement : Alexandra Zaïnal
Sur une idée originale de : Baudouin d'Aumeries
Soutien technique & logistique : Manuel Goepfert
Assistance : Marc-Olivier Méhu




SOURCES & CREDITS :

   NOAA